Time;durP1;ratioP1;P1;durP2;ratioP2;P2;SDS_P1;SDS_P2;PMS_P1;PMS_P2;Temp;Humidity;BMP_temperature;BMP_pressure;BME280_temperature;BME280_humidity;BME280_pressure;Samples;Min_cycle;Max_cycle;Signal;HPM_P1;HPM_P2
2022/08/22 00:00:23;;;;;;;20.12;3.58;;;;;;;20.07;98.52;100435.64;1718440;82;21691;-90
2022/08/22 00:03:33;;;;;;;25.88;4.20;;;;;;;20.08;100.00;100438.61;1735039;81;21563;-91
2022/08/22 00:06:41;;;;;;;31.25;4.87;;;;;;;20.08;100.00;100439.12;1642957;86;21171;-91
2022/08/22 00:09:28;;;;;;;26.25;4.40;;;;;;;20.09;99.80;100439.45;1674338;84;21134;-94
2022/08/22 00:12:16;;;;;;;35.90;4.53;;;;;;;20.09;98.18;100440.26;1731994;81;21177;-90
2022/08/22 00:15:02;;;;;;;33.75;4.95;;;;;;;20.09;97.44;100438.94;1742132;81;21060;-90
2022/08/22 00:17:50;;;;;;;24.05;4.33;;;;;;;20.08;96.67;100439.94;1740890;81;21044;-91
2022/08/22 00:20:32;;;;;;;32.60;4.78;;;;;;;20.08;98.82;100435.16;1684325;84;21027;-91
2022/08/22 00:23:26;;;;;;;36.20;4.12;;;;;;;20.07;98.08;100441.45;1686634;84;21050;-90
2022/08/22 00:26:46;;;;;;;36.50;4.50;;;;;;;20.06;96.47;100445.92;1640532;87;21790;-90
2022/08/22 00:29:24;;;;;;;26.90;4.28;;;;;;;20.06;95.47;100445.92;1691109;83;21014;-90
2022/08/22 00:32:02;;;;;;;40.78;5.33;;;;;;;20.07;95.27;100453.34;1737823;81;21069;-90
2022/08/22 00:34:43;;;;;;;34.67;5.25;;;;;;;20.06;93.96;100443.77;1742321;81;21005;-91
2022/08/22 00:37:37;;;;;;;39.00;5.85;;;;;;;20.06;94.81;100446.41;1745603;81;21036;-91
2022/08/22 00:40:28;;;;;;;43.13;4.80;;;;;;;20.07;95.22;100444.89;1737926;81;21520;-91
2022/08/22 00:43:23;;;;;;;39.20;5.37;;;;;;;20.08;94.33;100451.83;1732638;81;21001;-91
2022/08/22 00:46:11;;;;;;;42.05;7.20;;;;;;;20.07;93.07;100451.50;1738364;81;21070;-91
2022/08/22 00:49:09;;;;;;;42.45;6.30;;;;;;;20.09;90.59;100450.02;1720542;81;21065;-91
2022/08/22 00:52:12;;;;;;;37.65;5.20;;;;;;;20.11;89.19;100447.51;1734282;81;21104;-91
2022/08/22 00:55:10;;;;;;;45.80;5.95;;;;;;;20.14;88.41;100445.84;1747319;81;21125;-91
2022/08/22 00:57:49;;;;;;;35.38;6.22;;;;;;;20.16;88.99;100445.64;1747166;81;21014;-91
2022/08/22 01:00:24;;;;;;;32.73;4.67;;;;;;;20.17;88.17;100452.05;1731160;81;21012;-91
2022/08/22 01:03:18;;;;;;;29.70;5.30;;;;;;;20.18;87.96;100451.58;1739186;81;21558;-91
2022/08/22 01:06:07;;;;;;;46.18;5.95;;;;;;;20.18;88.75;100450.25;1741386;81;21056;-91
2022/08/22 01:08:55;;;;;;;34.98;6.75;;;;;;;20.17;87.36;100451.25;1728290;81;21169;-91
2022/08/22 01:11:48;;;;;;;42.40;6.25;;;;;;;20.18;86.79;100444.97;1735411;81;21037;-90
2022/08/22 01:14:41;;;;;;;31.70;5.35;;;;;;;20.16;86.79;100449.09;1731537;80;21147;-91
2022/08/22 01:17:50;;;;;;;58.00;6.40;;;;;;;20.16;87.51;100453.05;1741889;81;21124;-91
2022/08/22 01:20:54;;;;;;;39.73;5.72;;;;;;;20.16;86.22;100453.57;1741787;81;21080;-90
2022/08/22 01:24:00;;;;;;;56.65;6.95;;;;;;;20.15;87.27;100455.89;1701818;83;21174;-91
2022/08/22 01:26:58;;;;;;;50.10;6.42;;;;;;;20.14;85.90;100454.25;1670429;84;21097;-90
2022/08/22 01:29:59;;;;;;;46.95;6.70;;;;;;;20.13;87.35;100468.46;1702586;83;21006;-90
2022/08/22 01:32:56;;;;;;;50.50;6.87;;;;;;;20.10;86.72;100459.08;1666442;84;21027;-90
2022/08/22 01:35:58;;;;;;;38.80;6.65;;;;;;;20.08;86.96;100463.72;1664876;84;21029;-90
2022/08/22 01:38:41;;;;;;;45.05;6.25;;;;;;;20.07;87.16;100459.95;1699648;83;21157;-90
2022/08/22 01:41:42;;;;;;;45.50;6.37;;;;;;;20.04;88.96;100461.62;1670134;84;21038;-91
2022/08/22 01:44:28;;;;;;;44.08;7.35;;;;;;;20.02;87.65;100464.45;1685602;84;21026;-91
2022/08/22 01:47:12;;;;;;;48.40;6.80;;;;;;;19.98;87.21;100461.86;1676008;84;21062;-91
2022/08/22 01:49:57;;;;;;;48.52;6.08;;;;;;;19.96;87.35;100465.98;1636094;87;21033;-91
2022/08/22 01:52:48;;;;;;;47.60;6.33;;;;;;;19.96;86.94;100463.86;1745570;81;21516;-91
2022/08/22 01:55:57;;;;;;;49.38;6.28;;;;;;;19.95;87.17;100474.11;1746757;81;21051;-91
2022/08/22 01:58:31;;;;;;;51.77;6.80;;;;;;;19.98;86.39;100469.80;1738995;81;21002;-91
2022/08/22 02:01:16;;;;;;;43.55;6.85;;;;;;;19.96;86.73;100472.59;1734878;81;21124;-90
2022/08/22 02:04:04;;;;;;;47.15;6.72;;;;;;;19.96;86.04;100476.56;1740731;81;21562;-90
2022/08/22 02:06:46;;;;;;;48.02;6.45;;;;;;;19.97;85.84;100476.08;1737234;81;21215;-91
2022/08/22 02:09:46;;;;;;;35.33;5.20;;;;;;;19.98;86.55;100473.76;1739001;81;21033;-91
2022/08/22 02:12:36;;;;;;;55.35;6.47;;;;;;;19.98;86.86;100472.44;1700600;83;21082;-91
2022/08/22 02:15:27;;;;;;;47.90;6.37;;;;;;;19.98;87.20;100468.47;1686007;84;21050;-92
2022/08/22 02:18:23;;;;;;;55.53;7.07;;;;;;;19.97;86.98;100465.50;1688584;84;21802;-92
2022/08/22 02:21:19;;;;;;;41.45;6.25;;;;;;;19.97;88.09;100467.63;1694098;83;21298;-90
2022/08/22 02:23:57;;;;;;;45.58;7.17;;;;;;;19.96;88.98;100472.59;1729205;81;21728;-93
2022/08/22 02:27:03;;;;;;;36.25;7.15;;;;;;;19.94;89.49;100471.14;1740296;80;21022;-93
2022/08/22 02:29:41;;;;;;;61.53;6.85;;;;;;;19.92;89.81;100477.94;1744405;81;21053;-92
2022/08/22 02:32:26;;;;;;;47.98;6.50;;;;;;;19.91;89.22;100476.80;1704858;83;21047;-92
2022/08/22 02:35:13;;;;;;;54.05;7.00;;;;;;;19.89;89.26;100477.48;1668334;84;21192;-92
2022/08/22 02:38:02;;;;;;;50.52;5.97;;;;;;;19.89;89.97;100476.97;1671853;84;21020;-93
2022/08/22 02:40:49;;;;;;;41.92;5.72;;;;;;;19.88;90.32;100479.28;1681188;84;21043;-92
2022/08/22 02:43:42;;;;;;;39.23;6.58;;;;;;;19.89;91.13;100485.41;1677034;84;21180;-92
2022/08/22 02:46:38;;;;;;;44.45;7.33;;;;;;;19.85;91.49;100483.11;1679821;84;21097;-93
2022/08/22 02:49:29;;;;;;;39.60;6.28;;;;;;;19.84;91.64;100484.10;1688971;84;21194;-92
2022/08/22 02:52:04;;;;;;;51.88;7.15;;;;;;;19.84;91.38;100489.88;1739476;81;21062;-90
2022/08/22 02:55:00;;;;;;;49.77;6.25;;;;;;;19.83;91.07;100489.03;1717943;81;21029;-93
2022/08/22 02:58:04;;;;;;;48.35;6.75;;;;;;;19.84;90.85;100477.98;1750327;80;20978;-93
2022/08/22 03:00:53;;;;;;;50.08;5.85;;;;;;;19.85;90.96;100483.11;1737294;81;21056;-93
2022/08/22 03:03:26;;;;;;;44.95;5.90;;;;;;;19.84;92.31;100478.82;1733837;81;21124;-93
2022/08/22 03:06:05;;;;;;;47.35;6.42;;;;;;;19.84;93.13;100487.23;1716299;81;21556;-94
2022/08/22 03:08:40;;;;;;;49.77;7.80;;;;;;;19.83;92.80;100485.58;1744065;81;21072;-92
2022/08/22 03:11:31;;;;;;;48.50;6.65;;;;;;;19.81;93.41;100485.77;1745265;81;21855;-92
2022/08/22 03:14:04;;;;;;;49.18;6.60;;;;;;;19.79;94.29;100483.00;1746391;81;21021;-92
2022/08/22 03:16:39;;;;;;;58.15;7.72;;;;;;;19.78;94.01;100482.67;1747130;81;21100;-93
2022/08/22 03:19:20;;;;;;;44.60;6.60;;;;;;;19.78;93.70;100487.44;1751861;81;21017;-91
2022/08/22 03:21:55;;;;;;;48.08;7.53;;;;;;;19.78;95.17;100486.62;1742621;81;21055;-92
2022/08/22 03:24:43;;;;;;;42.20;6.53;;;;;;;19.77;93.92;100487.11;1674931;84;21531;-93
2022/08/22 03:27:22;;;;;;;41.58;6.87;;;;;;;19.79;93.83;100497.52;1705890;82;21037;-92
2022/08/22 03:30:13;;;;;;;55.48;6.72;;;;;;;19.82;93.67;100496.66;1691476;84;21159;-93
2022/08/22 03:33:10;;;;;;;45.60;6.08;;;;;;;19.84;94.28;100492.03;1689810;84;21053;-91
2022/08/22 03:35:49;;;;;;;42.05;6.08;;;;;;;19.85;92.66;100495.00;1655919;85;21042;-92
2022/08/22 03:38:33;;;;;;;50.40;7.28;;;;;;;19.88;93.51;100503.06;1749280;81;21629;-93
2022/08/22 03:41:49;;;;;;;59.85;7.50;;;;;;;19.90;92.75;100502.91;1751287;81;21068;-92
2022/08/22 03:44:42;;;;;;;56.55;7.20;;;;;;;19.91;91.53;100506.67;1744194;81;21658;-92
2022/08/22 03:47:43;;;;;;;51.00;6.90;;;;;;;19.94;89.82;100513.42;1696833;81;21056;-92
2022/08/22 03:51:05;;;;;;;55.03;8.20;;;;;;;19.97;91.29;100520.48;1755653;81;21076;-91
2022/08/22 03:54:06;;;;;;;57.73;6.95;;;;;;;19.99;90.53;100517.69;1753575;81;21040;-92
2022/08/22 03:56:44;;;;;;;51.68;7.12;;;;;;;20.03;91.51;100518.14;1748250;81;21601;-91
2022/08/22 03:59:34;;;;;;;47.10;6.53;;;;;;;20.03;92.88;100514.98;1717914;81;21077;-92
2022/08/22 04:02:39;;;;;;;39.13;7.10;;;;;;;20.05;91.68;100522.73;1741346;81;21613;-91
2022/08/22 04:05:47;;;;;;;48.58;6.83;;;;;;;20.06;92.67;100516.44;1742159;81;21120;-92
2022/08/22 04:08:25;;;;;;;57.10;6.95;;;;;;;20.08;93.75;100523.19;1750944;80;21115;-92
2022/08/22 04:11:06;;;;;;;43.33;6.62;;;;;;;20.10;93.18;100521.19;1738400;81;22093;-92
2022/08/22 04:13:56;;;;;;;45.03;6.35;;;;;;;20.13;92.43;100528.77;1745333;80;21181;-92
2022/08/22 04:17:04;;;;;;;52.13;6.67;;;;;;;20.18;91.24;100536.16;1698696;83;20947;-92
2022/08/22 04:20:11;;;;;;;46.75;6.78;;;;;;;20.18;91.24;100536.16;1752251;81;21064;-92
2022/08/22 04:23:17;;;;;;;59.50;8.23;;;;;;;20.22;91.91;100536.11;1716125;81;38364;-92
2022/08/22 04:25:52;;;;;;;49.10;6.35;;;;;;;20.26;90.39;100534.75;1751527;81;21072;-91
2022/08/22 04:28:37;;;;;;;44.45;7.33;;;;;;;20.28;93.06;100538.02;1749752;81;21189;-92
2022/08/22 04:31:11;;;;;;;53.23;6.70;;;;;;;20.31;94.28;100543.47;1748728;81;21081;-92
2022/08/22 04:34:14;;;;;;;43.10;6.80;;;;;;;20.32;91.25;100533.19;1750454;81;21084;-92
2022/08/22 04:37:05;;;;;;;33.78;5.35;;;;;;;20.35;92.38;100532.84;1746338;81;21030;-92
2022/08/22 04:39:41;;;;;;;39.95;6.58;;;;;;;20.36;94.26;100535.80;1751881;81;21029;-92
2022/08/22 04:42:18;;;;;;;44.98;6.00;;;;;;;20.39;95.02;100533.30;1736212;81;21187;-92
2022/08/22 04:45:01;;;;;;;48.35;6.75;;;;;;;20.43;95.28;100541.20;1744044;81;21542;-91
2022/08/22 04:47:35;;;;;;;33.42;6.58;;;;;;;20.48;96.97;100537.49;1743075;81;21519;-92
2022/08/22 04:50:23;;;;;;;35.20;5.53;;;;;;;20.52;98.08;100540.08;1753732;81;21060;-92
2022/08/22 04:53:40;;;;;;;43.75;6.50;;;;;;;20.56;94.83;100545.81;1741561;81;21069;-92
2022/08/22 04:56:24;;;;;;;50.73;6.20;;;;;;;20.59;95.82;100548.11;1749360;81;21081;-90
2022/08/22 04:59:06;;;;;;;;;;;;;;;20.65;94.63;100553.98;1725842;81;21105;-93
2022/08/22 05:01:53;;;;;;;61.70;7.67;;;;;;;20.68;95.74;100554.11;1748096;81;21154;-93
2022/08/22 05:04:43;;;;;;;42.78;5.58;;;;;;;20.70;93.58;100556.92;1751489;81;21518;-94
2022/08/22 05:07:29;;;;;;;36.83;5.65;;;;;;;20.73;94.77;100560.53;1751895;81;21052;-93
2022/08/22 05:10:05;;;;;;;35.10;5.67;;;;;;;20.78;96.40;100558.66;1748166;81;21270;-94
2022/08/22 05:12:40;;;;;;;39.98;5.87;;;;;;;20.85;100.00;100558.23;1747417;81;21025;-93
2022/08/22 05:15:26;;;;;;;36.65;5.95;;;;;;;20.92;100.00;100552.52;1732443;81;21116;-93
2022/08/22 05:17:59;;;;;;;45.35;6.83;;;;;;;21.01;100.00;100550.61;1728365;81;21058;-95
2022/08/22 05:20:28;;;;;;;29.07;4.70;;;;;;;21.10;100.00;100543.36;1725227;81;21609;-94
2022/08/22 05:23:05;;;;;;;26.10;5.00;;;;;;;21.16;97.23;100547.09;1736186;81;21153;-94
2022/08/22 05:25:35;;;;;;;41.28;5.50;;;;;;;21.21;95.73;100552.16;1730765;81;21050;-93
2022/08/22 05:28:26;;;;;;;34.45;5.85;;;;;;;21.26;99.49;100555.56;1737645;81;21033;-94
2022/08/22 05:30:57;;;;;;;28.52;5.22;;;;;;;21.33;97.65;100552.48;1740413;81;21041;-93
2022/08/22 05:33:35;;;;;;;31.68;5.40;;;;;;;21.41;100.00;100551.52;1737425;81;21029;-93
2022/08/22 05:36:17;;;;;;;40.20;6.58;;;;;;;21.49;100.00;100554.05;1737944;81;21148;-93
2022/08/22 05:38:52;;;;;;;30.72;5.22;;;;;;;21.57;100.00;100556.61;1733008;81;21100;-93
2022/08/22 05:41:26;;;;;;;27.90;5.12;;;;;;;21.63;92.93;100558.20;1732609;81;21096;-92
2022/08/22 05:43:57;;;;;;;41.88;6.05;;;;;;;21.67;94.56;100560.77;1745579;81;21006;-93
2022/08/22 05:46:54;;;;;;;41.40;6.03;;;;;;;21.71;96.26;100560.20;1749763;81;21053;-93
2022/08/22 05:49:47;;;;;;;39.13;5.17;;;;;;;21.78;92.32;100556.78;1737225;81;21128;-95
2022/08/22 05:52:27;;;;;;;20.82;4.55;;;;;;;21.81;94.36;100558.55;1633253;85;21047;-93
2022/08/22 05:55:33;;;;;;;27.42;4.80;;;;;;;21.86;90.03;100556.66;1711710;81;21621;-93
2022/08/22 05:58:30;;;;;;;22.32;4.85;;;;;;;21.88;87.72;100561.27;1741122;80;21104;-91
2022/08/22 06:01:20;;;;;;;28.77;4.80;;;;;;;21.92;94.25;100563.83;1745784;81;21047;-91
2022/08/22 06:04:03;;;;;;;37.85;5.33;;;;;;;22.01;94.38;100564.01;1743208;81;21123;-90
2022/08/22 06:06:43;;;;;;;28.47;5.22;;;;;;;22.12;92.14;100565.83;1739436;81;21045;-92
2022/08/22 06:09:40;;;;;;;31.25;5.65;;;;;;;22.16;85.56;100555.13;1735089;81;21488;-94
2022/08/22 06:12:15;;;;;;;34.73;4.62;;;;;;;22.20;88.78;100565.68;1727617;80;21037;-95
2022/08/22 06:15:14;;;;;;;33.98;5.30;;;;;;;22.28;91.05;100561.56;1727205;80;22356;-91
2022/08/22 06:17:52;;;;;;;34.35;5.47;;;;;;;22.34;87.80;100556.80;1730638;81;21646;-92
2022/08/22 06:20:39;;;;;;;35.05;5.40;;;;;;;22.47;92.33;100561.91;1731431;81;21191;-93
2022/08/22 06:23:14;;;;;;;34.10;5.35;;;;;;;22.58;90.78;100568.50;1724411;81;21546;-92
2022/08/22 06:25:46;;;;;;;37.63;6.20;;;;;;;22.69;86.12;100571.42;1747897;81;21311;-91
2022/08/22 06:28:23;;;;;;;27.17;4.70;;;;;;;22.73;82.36;100569.19;1742123;81;21072;-92
2022/08/22 06:30:56;;;;;;;18.07;4.80;;;;;;;22.74;80.89;100571.32;1694370;84;21220;-94
2022/08/22 06:33:31;;;;;;;37.90;5.53;;;;;;;22.76;84.75;100566.13;1694577;84;21078;-93
2022/08/22 06:36:29;;;;;;;31.50;5.40;;;;;;;22.82;84.58;100568.50;1745058;81;21131;-93
2022/08/22 06:39:23;;;;;;;30.17;5.33;;;;;;;22.85;80.27;100568.12;1741617;81;21692;-93
2022/08/22 06:42:14;;;;;;;36.20;5.62;;;;;;;22.87;80.62;100568.75;1742407;81;21057;-92
2022/08/22 06:44:53;;;;;;;30.23;4.87;;;;;;;22.92;82.36;100564.14;1721805;81;21162;-95
2022/08/22 06:47:34;;;;;;;30.72;4.83;;;;;;;23.00;81.93;100566.13;1737608;81;22090;-94
2022/08/22 06:50:14;;;;;;;30.40;5.35;;;;;;;23.09;83.74;100565.95;1741612;81;21530;-94
2022/08/22 06:53:17;;;;;;;18.57;4.40;;;;;;;23.18;83.16;100567.94;1707599;81;21088;-92
2022/08/22 06:55:49;;;;;;;38.20;5.20;;;;;;;23.28;86.12;100569.71;1740285;81;21095;-93
2022/08/22 06:58:38;;;;;;;26.23;4.03;;;;;;;23.39;77.26;100570.95;1737736;81;21088;-93
2022/08/22 07:01:28;;;;;;;18.52;4.58;;;;;;;23.44;79.26;100573.82;1742680;81;21132;-93
2022/08/22 07:04:08;;;;;;;24.87;4.80;;;;;;;23.51;80.61;100576.50;1733369;81;21136;-96
2022/08/22 07:06:48;;;;;;;41.02;5.95;;;;;;;23.58;77.49;100584.80;1718338;80;21054;-95
2022/08/22 07:09:28;;;;;;;18.95;3.83;;;;;;;23.63;77.49;100587.66;1708787;82;21199;-94
2022/08/22 07:11:59;;;;;;;28.35;4.92;;;;;;;23.71;77.79;100577.85;1705964;82;21140;-93
2022/08/22 07:14:32;;;;;;;29.95;5.53;;;;;;;23.77;74.31;100576.54;1709312;82;21515;-91
2022/08/22 07:17:04;;;;;;;27.82;5.47;;;;;;;23.85;73.70;100580.02;1700245;82;21088;-94
2022/08/22 07:19:41;;;;;;;17.90;3.80;;;;;;;23.91;73.92;100583.18;1707357;82;21045;-93
2022/08/22 07:22:17;;;;;;;27.17;4.65;;;;;;;24.01;73.76;100576.14;1702757;82;21043;-94
2022/08/22 07:24:51;;;;;;;20.97;4.65;;;;;;;24.13;74.29;100581.66;1696149;82;21997;-93
2022/08/22 07:27:55;;;;;;;23.55;4.55;;;;;;;24.19;72.48;100575.02;1698082;82;21019;-94
2022/08/22 07:30:30;;;;;;;24.72;4.55;;;;;;;24.21;71.51;100577.45;1706411;82;21049;-93
2022/08/22 07:33:09;;;;;;;22.67;4.55;;;;;;;24.18;73.68;100580.02;1703659;82;21099;-92
2022/08/22 07:35:45;;;;;;;31.68;4.40;;;;;;;24.16;74.54;100572.75;1702797;82;21046;-93
2022/08/22 07:38:41;;;;;;;27.35;4.55;;;;;;;24.14;74.19;100578.81;1699319;82;21794;-92
2022/08/22 07:41:18;;;;;;;42.23;6.05;;;;;;;24.11;71.03;100576.55;1704232;82;21089;-92
2022/08/22 07:43:51;;;;;;;32.45;5.05;;;;;;;24.08;70.02;100575.63;1709937;82;21065;-95
2022/08/22 07:46:41;;;;;;;27.37;5.83;;;;;;;24.14;75.51;100572.16;1706715;82;21372;-92
2022/08/22 07:49:20;;;;;;;25.85;4.90;;;;;;;24.35;72.53;100570.27;1702980;82;21082;-92
2022/08/22 07:52:04;;;;;;;33.15;5.25;;;;;;;24.50;68.48;100564.72;1708123;82;21835;-93
2022/08/22 07:55:03;;;;;;;22.07;4.47;;;;;;;24.48;67.65;100564.91;1704661;82;21053;-95
2022/08/22 07:57:34;;;;;;;25.08;5.10;;;;;;;24.47;68.15;100572.62;1702048;82;21069;-94
2022/08/22 08:00:13;;;;;;;36.53;5.85;;;;;;;24.46;68.70;100564.83;1709576;82;21039;-94
2022/08/22 08:02:55;;;;;;;21.37;4.20;;;;;;;24.42;69.14;100569.75;1700083;82;21644;-94
2022/08/22 08:05:27;;;;;;;226.75;165.80;;;;;;;24.46;73.50;100569.65;1713105;82;22229;-93
2022/08/22 08:07:56;;;;;;;87.85;53.40;;;;;;;24.65;74.11;100564.45;1704620;82;21070;-94
2022/08/22 08:10:33;;;;;;;29.52;7.80;;;;;;;24.89;72.88;100572.30;1705002;82;21359;-94
2022/08/22 08:13:10;;;;;;;14.58;4.97;;;;;;;25.16;75.39;100567.66;1707124;82;21144;-94
2022/08/22 08:15:42;;;;;;;23.50;4.05;;;;;;;25.47;75.44;100579.37;1707303;82;21069;-94
2022/08/22 08:18:18;;;;;;;21.05;4.97;;;;;;;25.72;72.41;100571.12;1709847;82;21821;-94
2022/08/22 08:20:57;;;;;;;22.30;4.47;;;;;;;25.87;70.21;100571.61;1700268;82;21093;-94
2022/08/22 08:23:30;;;;;;;23.05;4.50;;;;;;;25.96;67.95;100575.61;1703924;82;21001;-94
2022/08/22 08:26:08;;;;;;;14.18;4.30;;;;;;;26.01;67.06;100574.95;1704070;82;21099;-93
2022/08/22 08:28:45;;;;;;;20.82;4.12;;;;;;;26.02;66.49;100587.27;1703879;82;21616;-94
2022/08/22 08:31:37;;;;;;;15.15;3.58;;;;;;;26.05;67.54;100584.67;1703635;82;21951;-93
2022/08/22 08:34:13;;;;;;;31.48;4.42;;;;;;;26.12;66.69;100582.28;1701309;82;21051;-93
2022/08/22 08:37:16;;;;;;;23.30;4.17;;;;;;;26.10;67.34;100580.34;1702030;82;21087;-92
2022/08/22 08:39:50;;;;;;;20.05;3.50;;;;;;;26.02;66.04;100583.27;1702279;82;21031;-93
2022/08/22 08:45:53;;;;;;;31.35;5.10;;;;;;;26.14;70.79;100566.88;1676539;83;21199;-93
2022/08/22 08:48:54;;;;;;;32.85;4.05;;;;;;;26.47;64.33;100562.22;1694919;82;21190;-93
2022/08/22 08:51:48;;;;;;;22.42;3.70;;;;;;;26.64;68.03;100558.42;1701120;82;21576;-93
2022/08/22 08:54:29;;;;;;;18.48;3.90;;;;;;;26.84;68.17;100552.06;1700042;82;21018;-94
2022/08/22 08:57:08;;;;;;;18.60;3.52;;;;;;;26.95;65.31;100555.83;1701855;82;21069;-95
2022/08/22 09:00:14;;;;;;;26.48;3.47;;;;;;;27.05;65.42;100557.44;1697885;82;22148;-96
2022/08/22 09:03:16;;;;;;;20.48;3.55;;;;;;;27.15;64.64;100547.03;1701765;82;21131;-93
2022/08/22 09:06:11;;;;;;;19.12;3.45;;;;;;;27.34;66.93;100550.45;1702065;82;21122;-94
2022/08/22 09:09:09;;;;;;;18.60;3.10;;;;;;;27.60;65.64;100547.61;1704130;82;21053;-94
2022/08/22 09:12:21;;;;;;;12.75;3.35;;;;;;;27.79;65.51;100542.47;1704764;82;22171;-95
2022/08/22 09:15:02;;;;;;;8.75;2.70;;;;;;;28.01;63.27;100548.03;1709661;82;22068;-94
2022/08/22 09:18:04;;;;;;;15.13;3.37;;;;;;;28.17;59.32;100542.54;1701453;82;21641;-92
2022/08/22 09:21:16;;;;;;;16.30;3.27;;;;;;;28.25;58.03;100540.02;1702908;82;21073;-92
2022/08/22 09:24:22;;;;;;;14.65;3.80;;;;;;;28.23;57.48;100541.30;1693893;82;21062;-94
2022/08/22 09:27:00;;;;;;;17.57;3.83;;;;;;;28.22;56.78;100547.19;1704851;82;21580;-95
2022/08/22 09:29:49;;;;;;;14.73;3.25;;;;;;;28.30;54.49;100541.48;1702281;82;21856;-93
2022/08/22 09:32:55;;;;;;;18.20;3.85;;;;;;;28.40;51.85;100540.07;1683841;82;21076;-95
2022/08/22 09:35:44;;;;;;;19.25;3.98;;;;;;;28.44;50.66;100541.20;1703848;82;21112;-94
2022/08/22 09:38:58;;;;;;;16.42;3.95;;;;;;;28.43;51.00;100539.58;1701935;82;21390;-95
2022/08/22 09:41:42;;;;;;;22.58;4.42;;;;;;;28.46;50.99;100533.22;1705545;82;21056;-93
2022/08/22 09:44:27;;;;;;;12.93;3.80;;;;;;;28.55;49.47;100528.33;1697456;82;21176;-94
2022/08/22 09:47:24;;;;;;;20.00;4.08;;;;;;;28.64;51.90;100535.45;1704348;82;21041;-94
2022/08/22 09:50:21;;;;;;;18.70;3.55;;;;;;;28.78;49.18;100524.77;1703780;82;21091;-94
2022/08/22 09:53:23;;;;;;;22.13;4.03;;;;;;;28.92;48.71;100521.27;1704767;82;21517;-95
2022/08/22 09:55:57;;;;;;;23.92;4.80;;;;;;;29.03;48.02;100524.95;1706204;82;21043;-93
2022/08/22 09:58:57;;;;;;;19.87;4.22;;;;;;;29.14;49.05;100522.45;1692926;82;21235;-96
2022/08/22 10:04:20;;;;;;;18.27;4.03;;;;;;;29.31;48.76;100528.69;1650033;85;22001;-95
2022/08/22 10:06:58;;;;;;;16.85;4.05;;;;;;;29.47;48.82;100520.89;1649435;85;21058;-96
2022/08/22 10:09:33;;;;;;;13.05;3.10;;;;;;;29.64;46.84;100527.57;1648788;85;21048;-94
2022/08/22 10:12:14;;;;;;;10.98;2.62;;;;;;;29.74;43.26;100514.32;1665198;85;21275;-94
2022/08/22 10:15:05;;;;;;;19.63;3.10;;;;;;;29.86;38.84;100519.05;1659628;85;21058;-96
2022/08/22 10:17:41;;;;;;;11.70;2.65;;;;;;;29.97;40.68;100516.00;1656553;85;21038;-93
2022/08/22 10:20:31;;;;;;;14.50;2.75;;;;;;;30.13;40.86;100528.28;1617128;85;21412;-93
2022/08/22 10:23:07;;;;;;;11.15;2.50;;;;;;;30.24;39.01;100508.57;1659037;85;22340;-95
2022/08/22 10:25:53;;;;;;;11.83;2.50;;;;;;;30.38;39.76;100517.07;1653497;85;21218;-93
2022/08/22 10:28:49;;;;;;;14.30;2.83;;;;;;;30.49;37.95;100515.31;1655354;85;21600;-96
2022/08/22 10:31:30;;;;;;;14.25;2.65;;;;;;;30.59;36.91;100519.50;1656285;85;21116;-93
2022/08/22 10:34:33;;;;;;;14.55;2.77;;;;;;;30.68;39.39;100507.23;1659842;85;21103;-95
2022/08/22 10:37:29;;;;;;;18.07;3.10;;;;;;;30.78;36.22;100509.73;1665767;85;21076;-96
2022/08/22 10:40:35;;;;;;;12.33;2.92;;;;;;;30.88;38.45;100513.07;1660143;85;21199;-93
2022/08/22 10:43:25;;;;;;;18.65;2.98;;;;;;;31.01;37.63;100503.24;1629082;85;21020;-95
2022/08/22 10:46:00;;;;;;;14.78;2.87;;;;;;;31.17;37.57;100514.16;1660719;85;21089;-95
2022/08/22 10:48:48;;;;;;;22.15;3.25;;;;;;;31.28;36.46;100502.43;1660645;85;21061;-95
2022/08/22 10:51:29;;;;;;;15.58;3.02;;;;;;;31.36;36.85;100501.95;1658004;85;21073;-93
2022/08/22 10:54:14;;;;;;;23.67;3.85;;;;;;;31.47;34.77;100498.80;1657326;85;21126;-94
2022/08/22 10:56:57;;;;;;;12.30;3.12;;;;;;;31.56;34.85;100499.13;1654486;85;21015;-95
2022/08/22 10:59:48;;;;;;;18.10;3.42;;;;;;;31.63;34.46;100494.32;1654581;85;21069;-95
2022/08/22 11:02:35;;;;;;;17.23;3.95;;;;;;;31.72;34.37;100494.69;1631313;86;21082;-96
2022/08/22 11:05:30;;;;;;;17.65;3.33;;;;;;;31.81;32.92;100494.45;1636188;86;21623;-93
2022/08/22 11:08:09;;;;;;;13.88;3.27;;;;;;;31.92;33.83;100494.79;1645767;86;21185;-94
2022/08/22 11:10:57;;;;;;;25.72;4.30;;;;;;;32.05;31.54;100494.86;1653913;85;21090;-94
2022/08/22 11:14:06;;;;;;;20.23;3.87;;;;;;;32.10;31.48;100504.29;1633624;86;21060;-95
2022/08/22 11:17:08;;;;;;;20.55;4.58;;;;;;;32.09;31.83;100501.31;1657294;85;21063;-93
2022/08/22 11:19:56;;;;;;;27.40;4.03;;;;;;;32.07;31.33;100499.97;1652886;85;21036;-96
2022/08/22 11:22:43;;;;;;;29.65;4.70;;;;;;;32.05;29.51;100494.86;1655523;85;21761;-94
